Tuesday, September 25, 2018, 10:56 PM GMT
Back to Local

CYZV, Sept-Iles, Que.

Location: , , Canada Lat: 50.217
Local Time: 10:56 PM GMT (22:56 GMT) Lon: -66.267
Time Zone: GMT Elev: 180 ft

Show me the last for .
Show Decoded

2018-09-25 22:00 METAR CYZV 252200Z 09004KT 050V120 30SM FEW060 BKN120 OVC170 08/03 A3025 RMK
                 CU1AC6AC1 SLP247 =
2018-09-25 21:00 METAR CYZV 252100Z 11008KT 30SM SCT160 BKN200 OVC240 08/03 A3029 RMK AC3CI2CI3
                 SLP262 =
2018-09-25 20:00 METAR CYZV 252000Z 11010KT 30SM FEW180 OVC240 09/02 A3033 RMK AC2CI6 SLP275 =
2018-09-25 19:00 METAR CYZV 251900Z 10010KT 30SM FEW170 BKN220 09/02 A3037 RMK AC1CI6 PRESFR
                 SLP289 =
2018-09-25 18:00 METAR CYZV 251800Z 11009G16KT 30SM FEW110 BKN230 10/01 A3041 RMK AC1CI7 AC TR
                 SLP303 =
2018-09-25 17:00 METAR CYZV 251700Z 13011KT 30SM FEW005 FEW020 FEW100 BKN210 10/01 A3046 RMK
                 CF1SC1AC1CI7 CF TR SC TR AC TR SLP319 =
2018-09-25 16:00 METAR CYZV 251600Z 12011KT 30SM FEW020 FEW100 BKN230 10/00 A3050 RMK CU1AC1CI6
                 CU TR SLP333 =
2018-09-25 15:00 METAR CYZV 251500Z 12009G15KT 080V150 30SM FEW020 FEW080 FEW160 BKN220 09/02
                 A3053 RMK SC1AC1AC1CI5 SC TR AC TR SLP343 =
2018-09-25 14:00 METAR CYZV 251400Z 12010KT 30SM FEW020 FEW080 FEW090 BKN220 08/02 A3056 RMK
                 SC1AC1AC1CI5 SC TR AC TR SLP353 =
2018-09-25 13:00 METAR CYZV 251300Z 09009KT 30SM FEW020 FEW100 BKN210 06/M00 A3059 RMK SC1AC1CI6
                 SC TR SLP363 =
2018-09-25 12:00 METAR CYZV 251200Z 08005KT 040V100 30SM FEW100 SCT180 BKN230 03/M04 A3059 RMK
                 AC2AC1CI4 SLP365 =
2018-09-25 11:00 METAR CYZV 251100Z 06004KT 30SM SCT110 OVC170 01/M05 A3060 RMK AC3AC5 SLP367 =
2018-09-25 10:00 METAR CYZV 251000Z 05007KT 30SM BKN120 00/M05 A3061 RMK AC7 SLP370 =
2018-09-25 09:00 METAR CYZV 250900Z 04006KT 15SM SCT140 SCT200 BKN250 M01/M05 A3063 RMK AC3CC1CI1
                 SLP377 =
2018-09-25 08:00 METAR CYZV 250800Z 02002KT 20SM FEW160 SCT200 SCT250 M02/M05 A3063 RMK AC1CC2CI1
                 SLP378 =
2018-09-25 07:00 METAR CYZV 250700Z 00000KT 20SM SCT200 BKN250 M03/M06 A3063 RMK CC4CI2 SLP379 =
2018-09-25 06:00 METAR CYZV 250600Z VRB02KT 20SM SCT220 M01/M05 A3064 RMK CI4 SLP379 =
2018-09-25 05:00 METAR CYZV 250500Z VRB03KT 20SM SCT260 M01/M06 A3064 RMK CI3 SLP381 =
2018-09-25 04:00 METAR CYZV 250400Z 04007KT 20SM FEW260 M00/M06 A3063 RMK CI2 SLP378 =
2018-09-25 03:00 METAR CYZV 250300Z 03006KT 20SM FEW260 M00/M06 A3065 RMK CI1 CI TR SLP382 =
2018-09-25 02:00 METAR CYZV 250200Z 01004KT 20SM FEW260 M02/M05 A3062 RMK CI1 CI TR SLP374 =
2018-09-25 01:00 METAR CYZV 250100Z 35005KT 20SM FEW260 00/M05 A3063 RMK CI1 SLP379 =
2018-09-25 00:00 METAR CYZV 250000Z 33004KT 20SM FEW260 00/M05 A3061 RMK CI1 SLP370 =
2018-09-24 23:00 METAR CYZV 242300Z 32005KT 20SM FEW080 FEW260 05/M06 A3060 RMK AC1CI2 AC TR
                 SLP366 =

Support USWX by starting your Amazon purchase here.